Time;durP1;ratioP1;P1;durP2;ratioP2;P2;SDS_P1;SDS_P2;PMS_P1;PMS_P2;Temp;Humidity;BMP_temperature;BMP_pressure;BME280_temperature;BME280_humidity;BME280_pressure;Samples;Min_cycle;Max_cycle;Signal;HPM_P1;HPM_P2
2022/04/09 00:00:10;;;;;;;;;;;;;;;6.13;57.69;100021.84;4415898;32;19957;-70
2022/04/09 00:02:35;;;;;;;;;;;;;;;5.98;58.13;100025.28;4413295;32;19961;-70
2022/04/09 00:05:01;;;;;;;;;;;;;;;6.11;57.50;100020.69;4417751;32;20012;-70
2022/04/09 00:07:27;;;;;;;;;;;;;;;6.17;57.60;100018.19;4418776;32;19965;-70
2022/04/09 00:09:52;;;;;;;;;;;;;;;6.53;56.32;100028.28;4413263;32;19954;-70
2022/04/09 00:12:18;;;;;;;;;;;;;;;6.19;57.36;100036.09;4417635;32;20488;-70
2022/04/09 00:14:43;;;;;;;;;;;;;;;6.32;57.27;100033.50;4412423;32;19957;-70
2022/04/09 00:17:09;;;;;;;;;;;;;;;6.51;56.90;100035.53;4415571;32;19995;-71
2022/04/09 00:19:36;;;;;;;;;;;;;;;6.55;56.42;100039.84;4414889;32;19997;-70
2022/04/09 00:22:03;;;;;;;;;;;;;;;6.53;56.84;100055.47;4417245;32;19973;-70
2022/04/09 00:24:28;;;;;;;;;;;;;;;6.50;56.97;100051.50;4422404;32;19949;-70
2022/04/09 00:26:54;;;;;;;;;;;;;;;6.50;57.16;100057.09;4407558;32;20209;-70
2022/04/09 00:29:20;;;;;;;;;;;;;;;6.53;56.97;100055.47;4417659;32;20519;-70
2022/04/09 00:31:45;;;;;;;;;;;;;;;6.44;57.19;100058.78;4417353;32;20213;-70
2022/04/09 00:34:11;;;;;;;;;;;;;;;6.54;56.89;100057.84;4420366;32;20008;-70
2022/04/09 00:36:37;;;;;;;;;;;;;;;6.52;56.92;100062.25;4415777;32;20304;-70
2022/04/09 00:39:03;;;;;;;;;;;;;;;6.50;56.81;100062.69;4417349;32;20265;-70
2022/04/09 00:41:29;;;;;;;;;;;;;;;6.48;56.94;100064.34;4419453;32;21106;-70
2022/04/09 00:43:54;;;;;;;;;;;;;;;6.46;56.88;100056.38;4418551;32;19999;-70
2022/04/09 00:46:20;;;;;;;;;;;;;;;6.41;56.96;100054.06;4415083;32;19997;-70
2022/04/09 00:48:46;;;;;;;;;;;;;;;6.41;56.92;100050.50;4421591;32;20319;-70
2022/04/09 00:51:11;;;;;;;;;;;;;;;6.38;56.80;100054.16;4418298;32;19950;-70
2022/04/09 00:53:41;;;;;;;;;;;;;;;6.40;56.80;100063.66;4418788;32;20573;-70
2022/04/09 00:56:13;;;;;;;;;;;;;;;6.48;56.57;100064.34;4418366;32;20001;-70
2022/04/09 00:58:40;;;;;;;;;;;;;;;6.43;56.44;100073.19;4419970;32;20304;-70
2022/04/09 01:01:08;;;;;;;;;;;;;;;6.52;56.20;100071.44;4420843;32;20499;-70
2022/04/09 01:03:34;;;;;;;;;;;;;;;6.63;55.80;100074.03;4422158;32;20653;-70
2022/04/09 01:06:05;;;;;;;;;;;;;;;6.92;55.23;100084.25;4418896;32;20000;-70
2022/04/09 01:08:32;;;;;;;;;;;;;;;6.66;55.64;100078.78;4415860;32;19965;-70
2022/04/09 01:11:00;;;;;;;;;;;;;;;6.60;56.19;100080.47;4417995;32;20393;-70
2022/04/09 01:13:28;;;;;;;;;;;;;;;6.60;55.68;100083.28;4414414;32;20411;-70
2022/04/09 01:15:54;;;;;;;;;;;;;;;6.45;55.97;100082.75;4416190;32;20020;-70
2022/04/09 01:18:20;;;;;;;;;;;;;;;6.50;55.93;100078.69;4418240;32;20407;-70
2022/04/09 01:20:45;;;;;;;;;;;;;;;6.63;56.01;100080.41;4416353;32;19961;-69
2022/04/09 01:23:11;;;;;;;;;;;;;;;6.78;55.30;100090.09;4416450;32;19949;-69
2022/04/09 01:25:38;;;;;;;;;;;;;;;6.70;55.11;100097.06;4420280;32;19987;-70
2022/04/09 01:28:04;;;;;;;;;;;;;;;6.59;55.44;100104.06;4412702;32;19954;-70
2022/04/09 01:30:29;;;;;;;;;;;;;;;6.72;55.25;100100.19;4417744;32;19958;-70
2022/04/09 01:32:55;;;;;;;;;;;;;;;6.50;55.85;100107.41;4414613;32;19989;-70
2022/04/09 01:35:21;;;;;;;;;;;;;;;6.61;55.47;100101.63;4423039;32;20387;-70
2022/04/09 01:37:46;;;;;;;;;;;;;;;6.60;55.59;100109.22;4416135;32;20006;-70
2022/04/09 01:40:12;;;;;;;;;;;;;;;6.70;55.36;100104.66;4420182;32;19971;-70
2022/04/09 01:42:38;;;;;;;;;;;;;;;6.76;55.33;100116.91;4420061;32;20588;-70
2022/04/09 01:45:04;;;;;;;;;;;;;;;6.71;55.53;100115.41;4420537;32;19945;-70
2022/04/09 01:47:30;;;;;;;;;;;;;;;6.73;55.34;100121.38;4417369;32;19997;-70
2022/04/09 01:49:56;;;;;;;;;;;;;;;6.64;55.80;100117.53;4417152;32;19982;-70
2022/04/09 01:52:21;;;;;;;;;;;;;;;6.52;55.65;100116.16;4420651;32;19957;-70
2022/04/09 01:54:47;;;;;;;;;;;;;;;6.47;56.14;100122.22;4417144;32;19962;-70
2022/04/09 01:57:13;;;;;;;;;;;;;;;6.85;55.07;100123.53;4419709;32;19972;-70
2022/04/09 01:59:40;;;;;;;;;;;;;;;6.90;54.86;100125.06;4416416;32;19963;-70
2022/04/09 02:02:05;;;;;;;;;;;;;;;6.95;54.58;100127.34;4418385;32;20356;-70
2022/04/09 02:04:31;;;;;;;;;;;;;;;6.98;54.48;100120.88;4417301;32;20015;-70
2022/04/09 02:06:58;;;;;;;;;;;;;;;6.80;55.02;100129.63;4412653;32;20356;-70
2022/04/09 02:09:24;;;;;;;;;;;;;;;6.90;54.82;100134.22;4418641;32;19950;-70
2022/04/09 02:11:49;;;;;;;;;;;;;;;6.90;54.76;100133.44;4416401;32;20332;-70
2022/04/09 02:14:15;;;;;;;;;;;;;;;6.94;54.63;100132.16;4412017;32;20283;-70
2022/04/09 02:16:41;;;;;;;;;;;;;;;6.98;54.32;100135.69;4418012;32;20366;-70
2022/04/09 02:19:08;;;;;;;;;;;;;;;6.79;55.03;100136.44;4415570;32;20330;-70
2022/04/09 02:21:34;;;;;;;;;;;;;;;6.78;55.05;100134.84;4416422;32;20312;-70
2022/04/09 02:23:59;;;;;;;;;;;;;;;6.83;55.00;100145.53;4419787;32;20030;-70
2022/04/09 02:26:25;;;;;;;;;;;;;;;6.80;55.02;100148.41;4417100;32;20595;-70
2022/04/09 02:28:52;;;;;;;;;;;;;;;6.81;55.09;100155.59;4416988;32;19957;-70
2022/04/09 02:31:17;;;;;;;;;;;;;;;6.55;55.80;100151.66;4415785;32;19963;-70
2022/04/09 02:33:43;;;;;;;;;;;;;;;6.49;56.31;100152.53;4419672;32;19966;-70
2022/04/09 02:36:12;;;;;;;;;;;;;;;6.76;55.33;100156.06;4413803;32;20048;-70
2022/04/09 02:38:39;;;;;;;;;;;;;;;6.78;55.32;100157.22;4413407;32;20325;-70
2022/04/09 02:41:06;;;;;;;;;;;;;;;6.97;54.72;100164.84;4413669;32;20015;-70
2022/04/09 02:43:32;;;;;;;;;;;;;;;7.01;54.67;100160.00;4416215;32;20662;-70
2022/04/09 02:45:58;;;;;;;;;;;;;;;7.02;54.62;100161.56;4418561;32;19953;-70
2022/04/09 02:48:23;;;;;;;;;;;;;;;7.07;54.75;100154.69;4416317;32;20330;-70
2022/04/09 02:50:49;;;;;;;;;;;;;;;6.80;55.48;100159.59;4412069;32;20003;-70
2022/04/09 02:53:14;;;;;;;;;;;;;;;6.97;55.10;100170.44;4413900;32;20041;-70
2022/04/09 02:55:40;;;;;;;;;;;;;;;6.94;55.29;100165.72;4417336;32;20308;-70
2022/04/09 02:58:06;;;;;;;;;;;;;;;6.76;55.84;100172.84;4418164;32;20496;-70
2022/04/09 03:00:31;;;;;;;;;;;;;;;6.84;55.78;100171.50;4414546;32;19988;-70
2022/04/09 03:02:57;;;;;;;;;;;;;;;6.69;56.25;100175.78;4414017;32;20248;-70
2022/04/09 03:05:22;;;;;;;;;;;;;;;6.62;56.22;100178.66;4415555;32;19958;-70
2022/04/09 03:07:48;;;;;;;;;;;;;;;6.64;56.42;100181.84;4414998;32;19953;-70
2022/04/09 03:10:14;;;;;;;;;;;;;;;6.55;56.69;100176.81;4419046;32;19949;-70
2022/04/09 03:12:42;;;;;;;;;;;;;;;6.60;56.58;100176.28;4416952;32;19968;-70
2022/04/09 03:15:07;;;;;;;;;;;;;;;6.61;56.27;100179.91;4417228;32;19968;-70
2022/04/09 03:17:33;;;;;;;;;;;;;;;6.58;56.75;100189.94;4413952;32;20333;-70
2022/04/09 03:19:59;;;;;;;;;;;;;;;6.54;56.95;100194.00;4423299;32;19982;-70
2022/04/09 03:22:24;;;;;;;;;;;;;;;6.78;56.55;100198.38;4414196;32;19984;-70
2022/04/09 03:24:50;;;;;;;;;;;;;;;6.91;56.02;100199.34;4417047;32;19957;-70
2022/04/09 03:27:15;;;;;;;;;;;;;;;6.70;56.56;100194.13;4421124;32;20398;-69
2022/04/09 03:29:41;;;;;;;;;;;;;;;6.90;56.22;100201.34;4412076;32;19958;-69
2022/04/09 03:32:07;;;;;;;;;;;;;;;6.39;57.55;100210.22;4401517;32;19995;-69
2022/04/09 03:34:33;;;;;;;;;;;;;;;6.34;57.92;100207.88;4417473;32;19988;-70
2022/04/09 03:36:58;;;;;;;;;;;;;;;6.17;58.43;100214.53;4415003;32;19961;-69
2022/04/09 03:39:24;;;;;;;;;;;;;;;6.29;58.17;100207.59;4418847;32;20537;-69
2022/04/09 03:41:50;;;;;;;;;;;;;;;6.27;58.47;100215.59;4417781;32;20339;-69
2022/04/09 03:44:15;;;;;;;;;;;;;;;6.27;58.29;100210.78;4415456;32;19979;-69
2022/04/09 03:46:41;;;;;;;;;;;;;;;6.93;56.65;100216.50;4413684;32;19954;-70
2022/04/09 03:49:07;;;;;;;;;;;;;;;7.34;55.21;100220.50;4414400;32;20014;-70
2022/04/09 03:51:32;;;;;;;;;;;;;;;7.38;55.47;100221.22;4402371;32;19968;-70
2022/04/09 03:53:58;;;;;;;;;;;;;;;7.42;55.19;100221.16;4417410;32;20346;-70
2022/04/09 03:56:23;;;;;;;;;;;;;;;7.44;55.35;100227.91;4418533;32;19974;-70
2022/04/09 03:58:49;;;;;;;;;;;;;;;7.53;55.02;100228.13;4419670;32;20041;-70
2022/04/09 04:01:15;;;;;;;;;;;;;;;7.53;55.19;100224.53;4418299;32;19999;-69
2022/04/09 04:03:40;;;;;;;;;;;;;;;7.44;55.46;100233.50;4419339;32;19958;-69
2022/04/09 04:06:06;;;;;;;;;;;;;;;7.49;55.48;100241.41;4423284;32;19976;-69
2022/04/09 04:08:32;;;;;;;;;;;;;;;7.52;55.37;100245.38;4421076;32;20378;-69
2022/04/09 04:10:57;;;;;;;;;;;;;;;7.57;55.11;100242.06;4414993;32;20339;-69
2022/04/09 04:13:24;;;;;;;;;;;;;;;7.46;55.60;100244.28;4418621;32;20049;-69
2022/04/09 04:15:51;;;;;;;;;;;;;;;7.20;56.27;100253.56;4420053;32;19965;-70
2022/04/09 04:18:17;;;;;;;;;;;;;;;6.24;59.18;100252.75;4421976;32;19967;-70
2022/04/09 04:20:44;;;;;;;;;;;;;;;6.25;59.24;100245.94;4422341;32;19989;-69
2022/04/09 04:23:09;;;;;;;;;;;;;;;5.85;60.60;100259.66;4415892;32;19972;-69
2022/04/09 04:25:36;;;;;;;;;;;;;;;5.88;61.09;100258.03;4417493;32;20373;-70
2022/04/09 04:28:01;;;;;;;;;;;;;;;5.84;60.91;100263.69;4420042;32;19965;-70
2022/04/09 04:30:27;;;;;;;;;;;;;;;5.89;61.13;100257.59;4421533;32;20677;-70
2022/04/09 04:32:52;;;;;;;;;;;;;;;5.87;60.99;100257.22;4417843;32;19976;-70
2022/04/09 04:35:18;;;;;;;;;;;;;;;5.95;60.78;100260.72;4419681;32;19966;-70
2022/04/09 04:37:45;;;;;;;;;;;;;;;5.94;60.78;100265.53;4402960;32;20098;-70
2022/04/09 04:40:11;;;;;;;;;;;;;;;5.93;60.50;100268.75;4415142;32;19958;-70
2022/04/09 04:42:37;;;;;;;;;;;;;;;6.04;59.55;100258.19;4418295;32;20406;-70
2022/04/09 04:45:03;;;;;;;;;;;;;;;5.79;60.64;100252.91;4421528;32;20005;-70
2022/04/09 04:47:29;;;;;;;;;;;;;;;5.64;61.18;100264.66;4403131;32;20010;-70
2022/04/09 04:49:54;;;;;;;;;;;;;;;5.89;60.19;100270.75;4416351;32;19989;-69
2022/04/09 04:52:20;;;;;;;;;;;;;;;5.82;60.42;100268.06;4415378;32;19971;-69
2022/04/09 04:54:46;;;;;;;;;;;;;;;5.87;60.12;100264.81;4419799;32;20346;-69
2022/04/09 04:57:11;;;;;;;;;;;;;;;5.91;60.11;100268.34;4419388;32;19957;-69
2022/04/09 04:59:38;;;;;;;;;;;;;;;5.74;60.65;100272.91;4417486;32;19972;-69
2022/04/09 05:02:03;;;;;;;;;;;;;;;5.97;59.99;100272.28;4405716;32;19957;-69
2022/04/09 05:04:29;;;;;;;;;;;;;;;5.95;60.17;100285.84;4419885;32;20281;-69
2022/04/09 05:06:55;;;;;;;;;;;;;;;5.94;60.18;100275.91;4417314;32;19993;-69
2022/04/09 05:09:21;;;;;;;;;;;;;;;5.89;60.53;100279.16;4413698;32;20012;-69
2022/04/09 05:11:48;;;;;;;;;;;;;;;5.92;60.11;100283.88;4416286;32;19961;-69
2022/04/09 05:14:13;;;;;;;;;;;;;;;5.97;60.56;100280.66;4415220;32;20050;-69
2022/04/09 05:16:39;;;;;;;;;;;;;;;5.87;60.77;100290.72;4417630;32;20014;-69
2022/04/09 05:19:05;;;;;;;;;;;;;;;5.99;60.86;100295.00;4420418;32;19999;-69
2022/04/09 05:21:30;;;;;;;;;;;;;;;6.06;60.52;100295.69;4417750;32;20012;-69
2022/04/09 05:23:56;;;;;;;;;;;;;;;5.99;61.00;100301.34;4419566;32;19961;-69
2022/04/09 05:26:21;;;;;;;;;;;;;;;5.95;61.43;100300.63;4417867;32;20034;-69
2022/04/09 05:28:53;;;;;;;;;;;;;;;5.91;61.85;100299.88;4420016;32;20044;-69
2022/04/09 05:31:22;;;;;;;;;;;;;;;5.94;61.87;100312.19;4417445;32;19953;-69
2022/04/09 05:33:48;;;;;;;;;;;;;;;5.97;61.48;100303.78;4418210;32;19960;-69
2022/04/09 05:36:13;;;;;;;;;;;;;;;6.07;61.48;100300.06;4418860;32;20002;-69
2022/04/09 05:38:39;;;;;;;;;;;;;;;5.94;61.75;100306.62;4418786;32;19953;-69
2022/04/09 05:41:05;;;;;;;;;;;;;;;6.10;61.21;100295.63;4412268;32;20365;-70
2022/04/09 05:43:30;;;;;;;;;;;;;;;6.09;61.31;100300.44;4416824;32;19961;-69
2022/04/09 05:45:57;;;;;;;;;;;;;;;5.96;61.83;100296.59;4417650;32;19993;-69
2022/04/09 05:48:22;;;;;;;;;;;;;;;7.26;58.29;100299.44;4417332;32;19973;-70
2022/04/09 05:50:48;;;;;;;;;;;;;;;6.97;57.80;100315.13;4416928;32;19957;-69
2022/04/09 05:53:13;;;;;;;;;;;;;;;6.14;60.75;100307.56;4418663;32;19993;-69
2022/04/09 05:55:39;;;;;;;;;;;;;;;6.15;61.11;100320.31;4425694;32;19962;-69
2022/04/09 05:58:05;;;;;;;;;;;;;;;6.10;61.02;100317.97;4414082;32;20020;-69
2022/04/09 06:00:32;;;;;;;;;;;;;;;6.17;60.72;100320.72;4415545;32;19972;-69
2022/04/09 06:02:58;;;;;;;;;;;;;;;6.26;60.64;100318.16;4419438;32;19949;-69
2022/04/09 06:05:23;;;;;;;;;;;;;;;6.36;59.93;100325.63;4418219;32;20028;-69
2022/04/09 06:07:49;;;;;;;;;;;;;;;6.30;60.66;100320.91;4418049;32;19968;-69
2022/04/09 06:10:15;;;;;;;;;;;;;;;6.41;60.23;100333.53;4417902;32;20690;-69
2022/04/09 06:12:41;;;;;;;;;;;;;;;6.37;60.22;100341.19;4414182;32;20458;-69
2022/04/09 06:15:07;;;;;;;;;;;;;;;6.31;60.48;100337.28;4416033;32;19990;-69
2022/04/09 06:17:35;;;;;;;;;;;;;;;6.28;60.65;100343.69;4418604;32;20382;-69
2022/04/09 06:20:01;;;;;;;;;;;;;;;6.38;60.33;100347.56;4419851;32;19977;-69
2022/04/09 06:22:26;;;;;;;;;;;;;;;7.74;56.11;100342.50;4412645;32;19983;-69
2022/04/09 06:24:52;;;;;;;;;;;;;;;8.08;55.17;100351.44;4415322;32;20245;-69
2022/04/09 06:27:18;;;;;;;;;;;;;;;7.93;55.47;100355.78;4414965;32;20291;-69
2022/04/09 06:29:44;;;;;;;;;;;;;;;8.20;54.82;100361.25;4418974;32;19988;-69
2022/04/09 06:32:10;;;;;;;;;;;;;;;8.32;54.42;100360.62;4414841;32;19972;-69
2022/04/09 06:34:35;;;;;;;;;;;;;;;8.49;54.15;100365.06;4418126;32;20025;-70
2022/04/09 06:37:01;;;;;;;;;;;;;;;8.56;54.13;100373.31;4416554;32;20024;-69
2022/04/09 06:39:28;;;;;;;;;;;;;;;8.50;54.48;100369.41;4413930;32;20354;-69
2022/04/09 06:41:53;;;;;;;;;;;;;;;8.49;54.53;100372.66;4414178;32;20013;-69
2022/04/09 06:44:19;;;;;;;;;;;;;;;8.67;53.99;100381.47;4419510;32;20379;-69
2022/04/09 06:46:46;;;;;;;;;;;;;;;8.54;54.27;100381.38;4414897;32;20409;-70
2022/04/09 06:49:13;;;;;;;;;;;;;;;8.64;53.94;100382.34;4415379;32;19949;-70
2022/04/09 06:51:39;;;;;;;;;;;;;;;8.65;53.89;100390.34;4415807;32;19997;-69
2022/04/09 06:54:05;;;;;;;;;;;;;;;8.70;53.92;100389.03;4417849;32;19980;-69
2022/04/09 06:56:31;;;;;;;;;;;;;;;8.66;53.77;100396.75;4412685;32;20519;-69
2022/04/09 06:58:57;;;;;;;;;;;;;;;8.69;53.92;100401.47;4413268;32;20323;-69
2022/04/09 07:01:22;;;;;;;;;;;;;;;8.54;54.51;100403.00;4413043;32;19958;-69
2022/04/09 07:03:48;;;;;;;;;;;;;;;8.73;54.04;100405.00;4417540;32;19953;-69
2022/04/09 07:06:16;;;;;;;;;;;;;;;8.71;53.83;100411.03;4413988;32;20452;-69
2022/04/09 07:08:41;;;;;;;;;;;;;;;8.81;53.81;100412.03;4418016;32;19953;-69
2022/04/09 07:11:10;;;;;;;;;;;;;;;8.74;53.93;100420.63;4417755;32;20001;-69
2022/04/09 07:13:35;;;;;;;;;;;;;;;8.80;53.72;100430.88;4417179;32;20501;-69
2022/04/09 07:16:01;;;;;;;;;;;;;;;9.04;53.37;100429.53;4417008;32;19997;-69
2022/04/09 07:18:27;;;;;;;;;;;;;;;9.14;52.93;100441.78;4414898;32;19953;-69
2022/04/09 07:20:52;;;;;;;;;;;;;;;9.23;52.53;100437.13;4414844;32;20013;-69
2022/04/09 07:23:18;;;;;;;;;;;;;;;9.40;52.00;100447.16;4415839;32;20004;-69
2022/04/09 07:25:44;;;;;;;;;;;;;;;9.22;51.79;100440.34;4417025;32;19966;-69
2022/04/09 07:28:09;;;;;;;;;;;;;;;9.60;50.91;100466.72;4419935;32;20013;-69
2022/04/09 07:30:35;;;;;;;;;;;;;;;9.54;50.69;100466.47;4416368;32;21122;-69
2022/04/09 07:33:01;;;;;;;;;;;;;;;9.66;50.04;100471.37;4421913;32;20047;-69
2022/04/09 07:35:27;;;;;;;;;;;;;;;9.53;50.06;100478.13;4422628;32;20054;-69
2022/04/09 07:37:54;;;;;;;;;;;;;;;9.67;50.11;100475.75;4419133;32;19958;-69
2022/04/09 07:40:20;;;;;;;;;;;;;;;9.88;49.77;100480.09;4418726;32;19958;-69
2022/04/09 07:42:46;;;;;;;;;;;;;;;10.12;49.13;100483.50;4421058;32;20005;-69
2022/04/09 07:45:13;;;;;;;;;;;;;;;10.40;47.87;100488.37;4416439;32;19989;-69
2022/04/09 07:47:38;;;;;;;;;;;;;;;10.10;47.64;100493.16;4422959;32;20295;-69
2022/04/09 07:50:06;;;;;;;;;;;;;;;9.94;48.29;100487.53;4423189;32;19993;-70
2022/04/09 07:52:31;;;;;;;;;;;;;;;10.23;47.52;100498.06;4416864;32;19959;-70
2022/04/09 07:54:57;;;;;;;;;;;;;;;9.90;48.59;100502.91;4418704;32;19977;-70
2022/04/09 07:57:24;;;;;;;;;;;;;;;8.85;50.42;100491.31;4419220;32;20379;-70
2022/04/09 07:59:53;;;;;;;;;;;;;;;8.88;49.95;100496.84;4419347;32;20342;-69
2022/04/09 08:02:19;;;;;;;;;;;;;;;8.59;50.31;100504.25;4420274;32;20454;-69
2022/04/09 08:04:45;;;;;;;;;;;;;;;8.78;49.92;100497.87;4422487;32;20082;-70
2022/04/09 08:07:11;;;;;;;;;;;;;;;9.42;48.77;100508.50;4420228;32;20395;-70
2022/04/09 08:09:37;;;;;;;;;;;;;;;8.89;49.75;100501.25;4421990;32;19974;-70
2022/04/09 08:12:03;;;;;;;;;;;;;;;9.07;49.12;100510.06;4415405;32;19968;-70
2022/04/09 08:14:32;;;;;;;;;;;;;;;9.23;49.02;100503.69;4416130;32;20331;-70
2022/04/09 08:16:58;;;;;;;;;;;;;;;9.08;49.23;100520.06;4417535;32;19964;-70
2022/04/09 08:19:23;;;;;;;;;;;;;;;9.34;49.22;100516.28;4421030;32;20582;-70
2022/04/09 08:21:49;;;;;;;;;;;;;;;9.65;47.66;100517.56;4418368;32;19972;-70
2022/04/09 08:24:14;;;;;;;;;;;;;;;9.81;46.72;100528.81;4420814;32;21381;-70
2022/04/09 08:26:40;;;;;;;;;;;;;;;9.74;46.85;100525.37;4418863;32;20023;-70
2022/04/09 08:29:06;;;;;;;;;;;;;;;10.04;46.29;100531.44;4420696;32;20000;-70
2022/04/09 08:31:31;;;;;;;;;;;;;;;10.39;44.68;100528.97;4416633;32;20017;-70
2022/04/09 08:33:57;;;;;;;;;;;;;;;10.75;43.93;100530.38;4420895;32;19961;-70
2022/04/09 08:36:23;;;;;;;;;;;;;;;10.82;42.15;100546.28;4416945;32;20402;-70
2022/04/09 08:38:48;;;;;;;;;;;;;;;10.70;41.76;100544.19;4419443;32;19954;-70
2022/04/09 08:41:14;;;;;;;;;;;;;;;11.21;40.48;100549.56;4416732;32;19989;-70
2022/04/09 08:43:40;;;;;;;;;;;;;;;11.70;39.86;100558.56;4419886;32;19961;-70
2022/04/09 08:46:06;;;;;;;;;;;;;;;11.89;39.42;100552.69;4417447;32;20003;-70
2022/04/09 08:48:32;;;;;;;;;;;;;;;11.97;38.79;100567.34;4416977;32;19968;-70
2022/04/09 08:50:59;;;;;;;;;;;;;;;11.64;38.91;100566.00;4415391;32;19954;-70
2022/04/09 08:53:24;;;;;;;;;;;;;;;11.76;39.17;100562.37;4415813;32;19954;-70
2022/04/09 08:55:51;;;;;;;;;;;;;;;12.60;37.50;100567.22;4422682;32;20001;-70
2022/04/09 08:58:16;;;;;;;;;;;;;;;13.17;36.77;100572.44;4418443;32;19983;-70
2022/04/09 09:00:45;;;;;;;;;;;;;;;13.34;36.42;100583.06;4402597;32;19957;-70
2022/04/09 09:03:14;;;;;;;;;;;;;;;13.04;36.75;100586.59;4422512;32;19964;-70
2022/04/09 09:05:40;;;;;;;;;;;;;;;13.63;35.87;100583.53;4419057;32;20365;-70
2022/04/09 09:08:07;;;;;;;;;;;;;;;12.43;37.32;100585.56;4422776;32;20089;-70
2022/04/09 09:10:32;;;;;;;;;;;;;;;12.28;38.39;100588.06;4420195;32;19949;-70
2022/04/09 09:13:00;;;;;;;;;;;;;;;12.56;37.71;100586.31;4417370;32;19977;-70
2022/04/09 09:15:26;;;;;;;;;;;;;;;12.46;37.26;100579.81;4416150;32;19988;-70
2022/04/09 09:17:54;;;;;;;;;;;;;;;12.16;37.94;100573.97;4417488;32;19968;-70
2022/04/09 09:20:21;;;;;;;;;;;;;;;12.16;38.35;100591.69;4420164;32;19998;-70
2022/04/09 09:22:48;;;;;;;;;;;;;;;12.46;37.81;100593.91;4416897;32;19954;-70
2022/04/09 09:25:13;;;;;;;;;;;;;;;12.23;37.01;100594.28;4415666;32;19965;-70
2022/04/09 09:27:40;;;;;;;;;;;;;;;11.96;37.60;100586.28;4417313;32;20350;-70
2022/04/09 09:30:07;;;;;;;;;;;;;;;12.41;37.73;100593.69;4413575;32;20269;-70
2022/04/09 09:32:34;;;;;;;;;;;;;;;12.99;36.04;100594.84;4405074;32;19973;-70
2022/04/09 09:35:01;;;;;;;;;;;;;;;13.66;35.00;100610.13;4414017;32;19970;-70
2022/04/09 09:37:29;;;;;;;;;;;;;;;13.97;33.43;100605.25;4420374;32;19962;-70
2022/04/09 09:39:55;;;;;;;;;;;;;;;14.05;33.02;100595.19;4418879;32;20237;-70
2022/04/09 09:42:21;;;;;;;;;;;;;;;14.63;31.97;100596.03;4420395;32;19965;-70
2022/04/09 09:44:48;;;;;;;;;;;;;;;15.06;31.09;100609.91;4414791;32;20004;-70
2022/04/09 09:47:15;;;;;;;;;;;;;;;14.60;31.84;100605.47;4417298;32;20315;-70
2022/04/09 09:49:56;;;;;;;;;;;;;;;14.77;30.96;100601.09;4415277;32;19969;-70
2022/04/09 09:52:23;;;;;;;;;;;;;;;14.98;31.13;100607.88;4416442;32;19973;-70
2022/04/09 09:55:10;;;;;;;;;;;;;;;14.68;31.08;100603.13;4417091;32;19957;-71
2022/04/09 09:57:37;;;;;;;;;;;;;;;14.81;30.89;100595.25;4418055;32;20304;-70
2022/04/09 10:00:05;;;;;;;;;;;;;;;16.93;27.76;100596.78;4415817;32;20388;-70
2022/04/09 10:02:31;;;;;;;;;;;;;;;17.15;26.66;100607.81;4414722;32;19950;-70
2022/04/09 10:04:56;;;;;;;;;;;;;;;17.06;26.84;100602.22;4417515;32;19989;-70
2022/04/09 10:07:23;;;;;;;;;;;;;;;16.61;27.33;100609.00;4416730;32;20306;-70
2022/04/09 10:09:49;;;;;;;;;;;;;;;16.62;27.13;100609.78;4414274;32;19982;-70
2022/04/09 10:12:19;;;;;;;;;;;;;;;16.40;27.86;100603.56;4413235;32;19964;-70
2022/04/09 10:14:48;;;;;;;;;;;;;;;16.62;27.62;100612.63;4415061;32;19969;-70
2022/04/09 10:17:16;;;;;;;;;;;;;;;17.44;27.10;100607.88;4415088;32;19997;-70
2022/04/09 10:19:43;;;;;;;;;;;;;;;17.78;26.58;100610.84;4414061;32;20044;-70
2022/04/09 10:22:11;;;;;;;;;;;;;;;17.62;25.88;100631.25;4414119;32;19962;-70
2022/04/09 10:24:37;;;;;;;;;;;;;;;16.31;27.21;100615.78;4419248;32;20005;-70
2022/04/09 10:27:04;;;;;;;;;;;;;;;17.46;26.17;100623.19;4414019;32;19987;-70
2022/04/09 10:29:50;;;;;;;;;;;;;;;16.39;28.12;100619.84;4417828;32;19954;-70
2022/04/09 10:32:36;;;;;;;;;;;;;;;15.99;28.17;100627.91;4407455;32;20206;-70
2022/04/09 10:35:01;;;;;;;;;;;;;;;16.11;28.14;100623.28;4416701;32;20330;-70
2022/04/09 10:37:27;;;;;;;;;;;;;;;16.34;27.46;100626.16;4415577;32;20028;-70
2022/04/09 10:39:53;;;;;;;;;;;;;;;16.59;27.37;100636.31;4414677;32;20395;-70
2022/04/09 10:42:38;;;;;;;;;;;;;;;16.41;28.11;100622.97;4416430;32;19975;-70
2022/04/09 10:45:05;;;;;;;;;;;;;;;16.88;27.36;100617.31;4415109;32;20590;-70
2022/04/09 10:47:51;;;;;;;;;;;;;;;16.97;26.90;100625.78;4415534;32;19966;-70
2022/04/09 10:50:16;;;;;;;;;;;;;;;17.12;25.87;100625.84;4416740;32;19990;-70
2022/04/09 10:52:47;;;;;;;;;;;;;;;17.37;25.85;100643.16;4413606;32;19958;-70
2022/04/09 10:57:58;;;;;;;;;;;;;;;18.05;25.40;100628.88;3953118;32;15746473;-71
2022/04/09 11:03:21;;;;;;;;;;;;;;;17.14;25.81;100635.47;3955033;32;15724497;-71
2022/04/09 11:05:47;;;;;;;;;;;;;;;16.75;26.67;100633.84;4440503;32;19957;-71
2022/04/09 11:08:14;;;;;;;;;;;;;;;17.72;25.08;100641.28;4430630;32;21693;-70
2022/04/09 11:10:41;;;;;;;;;;;;;;;16.55;27.49;100632.88;4437582;32;19992;-71
2022/04/09 11:13:10;;;;;;;;;;;;;;;17.77;26.02;100642.66;4431875;32;19957;-71
2022/04/09 11:15:36;;;;;;;;;;;;;;;17.91;23.78;100639.00;4435458;32;20072;-71
2022/04/09 11:18:02;;;;;;;;;;;;;;;17.29;24.19;100644.03;4438666;32;20121;-71
2022/04/09 11:20:31;;;;;;;;;;;;;;;17.30;24.36;100642.75;4436152;32;19985;-71
2022/04/09 11:23:06;;;;;;;;;;;;;;;17.53;24.38;100639.09;4439707;32;19957;-70
2022/04/09 11:25:32;;;;;;;;;;;;;;;17.34;24.63;100640.50;4438406;32;20334;-70
2022/04/09 11:31:02;;;;;;;;;;;;;;;18.21;24.62;100660.50;3955142;32;15730520;-71
2022/04/09 11:33:27;;;;;;;;;;;;;;;18.21;24.62;100660.50;4426675;32;20010;-71
2022/04/09 11:35:53;;;;;;;;;;;;;;;17.66;24.54;100660.31;4425099;32;20057;-71
2022/04/09 11:38:19;;;;;;;;;;;;;;;17.50;25.28;100657.94;4435277;32;19971;-71
2022/04/09 11:40:47;;;;;;;;;;;;;;;17.35;26.04;100667.69;4425303;32;19964;-71
2022/04/09 11:43:14;;;;;;;;;;;;;;;17.85;25.43;100647.47;4424015;32;20698;-71
2022/04/09 11:45:40;;;;;;;;;;;;;;;17.93;24.77;100653.56;4426903;32;19961;-71
2022/04/09 11:48:05;;;;;;;;;;;;;;;17.98;24.99;100650.00;4426137;32;19967;-71
2022/04/09 11:50:32;;;;;;;;;;;;;;;17.01;26.43;100648.38;4424538;32;20018;-69
2022/04/09 11:53:18;;;;;;;;;;;;;;;16.69;27.61;100658.50;4424618;32;20323;-70
2022/04/09 11:55:44;;;;;;;;;;;;;;;16.70;27.14;100654.41;4425954;32;19989;-70
2022/04/09 11:58:14;;;;;;;;;;;;;;;16.32;27.47;100659.94;4426930;32;19966;-70
2022/04/09 12:00:42;;;;;;;;;;;;;;;17.06;27.33;100657.00;4424322;32;19961;-70
2022/04/09 12:03:08;;;;;;;;;;;;;;;17.02;27.46;100656.41;4426974;32;19961;-70
2022/04/09 12:05:37;;;;;;;;;;;;;;;16.76;26.95;100661.00;4424559;32;20000;-69
2022/04/09 12:08:05;;;;;;;;;;;;;;;16.52;26.60;100660.19;4425732;32;20015;-71
2022/04/09 12:10:31;;;;;;;;;;;;;;;16.92;26.83;100659.78;4424112;32;20404;-69
2022/04/09 12:13:01;;;;;;;;;;;;;;;16.67;27.50;100665.97;4422727;32;19957;-70
2022/04/09 12:15:28;;;;;;;;;;;;;;;16.40;27.89;100660.37;4423130;32;19990;-71
2022/04/09 12:17:53;;;;;;;;;;;;;;;16.06;28.53;100661.63;4425231;32;19989;-72
2022/04/09 12:20:41;;;;;;;;;;;;;;;16.15;28.35;100661.59;4425941;32;19959;-70
2022/04/09 12:23:08;;;;;;;;;;;;;;;16.43;28.15;100676.47;4424156;32;20004;-70
2022/04/09 12:25:42;;;;;;;;;;;;;;;17.70;26.57;100677.97;4427171;32;20026;-70
2022/04/09 12:28:24;;;;;;;;;;;;;;;18.02;26.69;100669.75;4423788;32;19993;-70
2022/04/09 12:30:51;;;;;;;;;;;;;;;16.71;28.39;100669.41;4397433;32;19954;-70
2022/04/09 12:33:17;;;;;;;;;;;;;;;16.51;28.65;100678.50;4401410;32;20298;-70
2022/04/09 12:35:43;;;;;;;;;;;;;;;15.74;29.47;100677.31;4400163;32;19950;-70
2022/04/09 12:38:08;;;;;;;;;;;;;;;15.32;30.39;100690.56;4398785;32;19954;-70
2022/04/09 12:40:34;;;;;;;;;;;;;;;15.60;30.44;100682.84;4393624;32;19959;-70
2022/04/09 12:43:01;;;;;;;;;;;;;;;15.87;30.37;100686.41;4391609;32;19999;-70
2022/04/09 12:45:28;;;;;;;;;;;;;;;16.02;30.08;100672.38;4392168;32;19954;-70
2022/04/09 12:47:59;;;;;;;;;;;;;;;17.89;27.83;100682.22;4386428;32;20008;-71